Time;durP1;ratioP1;P1;durP2;ratioP2;P2;SDS_P1;SDS_P2;PMS_P1;PMS_P2;Temp;Humidity;BMP_temperature;BMP_pressure;BME280_temperature;BME280_humidity;BME280_pressure;Samples;Min_cycle;Max_cycle;Signal;HPM_P1;HPM_P2
2023/10/25 00:01:42;;;;;;;0.00;0.00;;;22.90;49.80;;;;;;5081470;28;20681;-47
2023/10/25 00:04:13;;;;;;;0.10;0.10;;;22.90;49.80;;;;;;5083858;28;20657;-47
2023/10/25 00:06:43;;;;;;;0.00;0.00;;;22.90;49.80;;;;;;5072290;28;20650;-46
2023/10/25 00:09:14;;;;;;;0.00;0.00;;;22.90;49.80;;;;;;5080228;28;20230;-47
2023/10/25 00:11:47;;;;;;;0.00;0.00;;;22.90;49.70;;;;;;5078361;28;20658;-48
2023/10/25 00:14:17;;;;;;;0.00;0.00;;;22.90;49.70;;;;;;5075780;28;20210;-47
2023/10/25 00:16:48;;;;;;;0.00;0.00;;;23.00;49.70;;;;;;5076804;28;20456;-45
2023/10/25 00:19:18;;;;;;;0.03;0.03;;;23.00;49.70;;;;;;5086083;28;20229;-47
2023/10/25 00:21:49;;;;;;;0.00;0.00;;;23.00;49.60;;;;;;5080193;28;20218;-47
2023/10/25 00:24:20;;;;;;;0.05;0.05;;;23.10;49.50;;;;;;5074397;28;20203;-46
2023/10/25 00:26:52;;;;;;;0.08;0.08;;;23.10;49.40;;;;;;5082381;28;20202;-48
2023/10/25 00:29:23;;;;;;;0.10;0.10;;;23.10;49.20;;;;;;5076393;28;20226;-47
2023/10/25 00:31:54;;;;;;;0.10;0.10;;;23.20;49.20;;;;;;5080623;28;20198;-48
2023/10/25 00:34:24;;;;;;;0.00;0.00;;;23.20;49.20;;;;;;5080437;28;20202;-48
2023/10/25 00:36:55;;;;;;;0.00;0.00;;;23.30;49.20;;;;;;5070475;28;20202;-50
2023/10/25 00:39:26;;;;;;;0.00;0.00;;;23.30;49.30;;;;;;5087015;28;20292;-49
2023/10/25 00:41:58;;;;;;;0.00;0.00;;;23.30;49.30;;;;;;5080600;28;20233;-50
2023/10/25 00:44:29;;;;;;;0.00;0.00;;;23.30;49.40;;;;;;5078292;28;20212;-48
2023/10/25 00:47:00;;;;;;;0.00;0.00;;;23.40;49.40;;;;;;5083850;28;20282;-47
2023/10/25 00:49:31;;;;;;;0.00;0.00;;;23.40;49.40;;;;;;5090304;28;20231;-47
2023/10/25 00:52:01;;;;;;;0.00;0.00;;;23.40;49.30;;;;;;5084787;28;20665;-45
2023/10/25 00:54:32;;;;;;;0.00;0.00;;;23.40;49.40;;;;;;5077917;28;20209;-46
2023/10/25 00:57:05;;;;;;;0.10;0.10;;;23.40;49.30;;;;;;5079229;28;20529;-47
2023/10/25 00:59:36;;;;;;;0.00;0.00;;;23.40;49.30;;;;;;5080312;28;20795;-46
2023/10/25 01:02:10;;;;;;;0.00;0.00;;;23.50;49.40;;;;;;5076628;28;20217;-47
2023/10/25 01:04:40;;;;;;;0.03;0.03;;;23.50;49.40;;;;;;5077717;28;20209;-46
2023/10/25 01:07:11;;;;;;;0.00;0.00;;;23.50;49.20;;;;;;5076224;28;20203;-47
2023/10/25 01:09:42;;;;;;;0.00;0.00;;;23.50;49.80;;;;;;5074755;28;20219;-45
2023/10/25 01:12:14;;;;;;;0.00;0.00;;;23.60;49.10;;;;;;5080264;28;20194;-48
2023/10/25 01:14:45;;;;;;;0.00;0.00;;;23.60;48.90;;;;;;5082889;28;20194;-48
2023/10/25 01:17:15;;;;;;;0.00;0.00;;;23.60;48.90;;;;;;5078006;28;20269;-48
2023/10/25 01:19:46;;;;;;;0.00;0.00;;;23.70;48.80;;;;;;5083561;28;20709;-49
2023/10/25 01:22:17;;;;;;;0.00;0.00;;;23.70;48.70;;;;;;5083513;28;20716;-45
2023/10/25 01:24:49;;;;;;;0.00;0.00;;;23.80;48.90;;;;;;5085258;28;20207;-46
2023/10/25 01:27:20;;;;;;;0.10;0.10;;;23.80;48.90;;;;;;5081739;28;20202;-47
2023/10/25 01:29:50;;;;;;;0.00;0.00;;;23.80;48.80;;;;;;5079652;28;20218;-47
2023/10/25 01:32:21;;;;;;;0.00;0.00;;;23.80;48.80;;;;;;5083789;28;20198;-49
2023/10/25 01:34:52;;;;;;;0.00;0.00;;;23.80;48.80;;;;;;5086342;28;20194;-48
2023/10/25 01:37:22;;;;;;;0.00;0.00;;;23.80;48.80;;;;;;5071308;28;20207;-50
2023/10/25 01:39:55;;;;;;;0.00;0.00;;;23.90;48.80;;;;;;5075704;28;20210;-46
2023/10/25 01:42:26;;;;;;;0.00;0.00;;;23.90;48.80;;;;;;5075911;28;20401;-46
2023/10/25 01:44:56;;;;;;;0.00;0.00;;;23.90;48.80;;;;;;5078195;28;20563;-48
2023/10/25 01:47:27;;;;;;;0.00;0.00;;;23.90;48.70;;;;;;5077137;28;20552;-45
2023/10/25 01:49:58;;;;;;;0.00;0.00;;;24.00;48.80;;;;;;5079047;28;20475;-48
2023/10/25 01:52:28;;;;;;;0.00;0.00;;;24.00;48.80;;;;;;5079883;28;20199;-46
2023/10/25 01:55:01;;;;;;;0.00;0.00;;;24.00;48.90;;;;;;5078837;28;20199;-47
2023/10/25 01:57:32;;;;;;;0.00;0.00;;;24.00;48.80;;;;;;5079657;28;20202;-49
2023/10/25 02:00:03;;;;;;;0.00;0.00;;;24.00;48.80;;;;;;5082297;28;20217;-48
2023/10/25 02:02:34;;;;;;;0.00;0.00;;;24.10;48.90;;;;;;5079147;28;20316;-49
2023/10/25 02:05:04;;;;;;;0.10;0.10;;;24.10;48.90;;;;;;5081875;28;20202;-50
2023/10/25 02:07:35;;;;;;;0.00;0.00;;;24.20;48.80;;;;;;5080643;28;20199;-49
2023/10/25 02:10:08;;;;;;;0.00;0.00;;;24.20;48.80;;;;;;5079265;28;20219;-44
2023/10/25 02:12:39;;;;;;;0.10;0.10;;;24.20;48.80;;;;;;5083412;28;20202;-50
2023/10/25 02:15:10;;;;;;;0.00;0.00;;;24.20;48.70;;;;;;5080284;28;20198;-48
2023/10/25 02:17:41;;;;;;;0.00;0.00;;;24.30;48.70;;;;;;5081962;28;20205;-49
2023/10/25 02:20:12;;;;;;;0.10;0.10;;;24.30;48.70;;;;;;5084269;28;20214;-47
2023/10/25 02:22:43;;;;;;;0.00;0.00;;;24.30;48.70;;;;;;5082712;28;20225;-48
2023/10/25 02:25:15;;;;;;;0.00;0.00;;;24.40;48.70;;;;;;5081059;28;20199;-47
2023/10/25 02:27:46;;;;;;;0.00;0.00;;;24.40;48.70;;;;;;5084719;28;20210;-48
2023/10/25 02:30:17;;;;;;;0.00;0.00;;;24.40;48.70;;;;;;5081430;28;20215;-45
2023/10/25 02:32:48;;;;;;;0.10;0.10;;;24.50;48.70;;;;;;5083423;28;20194;-45
2023/10/25 02:35:18;;;;;;;0.00;0.00;;;24.50;48.80;;;;;;5080708;28;20201;-48
2023/10/25 02:37:49;;;;;;;0.00;0.00;;;24.50;48.80;;;;;;5079565;28;20233;-47
2023/10/25 02:40:21;;;;;;;0.00;0.00;;;24.50;48.80;;;;;;5083573;28;20634;-46
2023/10/25 02:42:52;;;;;;;0.00;0.00;;;24.50;48.80;;;;;;5083055;28;20222;-48
2023/10/25 02:45:23;;;;;;;0.00;0.00;;;24.60;48.80;;;;;;5080003;28;20217;-50
2023/10/25 02:47:53;;;;;;;0.00;0.00;;;24.70;48.70;;;;;;5082365;28;20197;-50
2023/10/25 02:50:24;;;;;;;0.00;0.00;;;24.70;48.70;;;;;;5084210;28;20202;-49
2023/10/25 02:52:55;;;;;;;0.00;0.00;;;24.70;48.60;;;;;;5081243;28;20213;-50
2023/10/25 02:55:27;;;;;;;0.08;0.08;;;24.80;48.60;;;;;;5081662;28;20578;-49
2023/10/25 02:57:58;;;;;;;0.00;0.00;;;24.90;48.60;;;;;;5081424;28;20221;-46
2023/10/25 03:00:28;;;;;;;0.00;0.00;;;24.90;48.60;;;;;;5079689;28;20681;-46
2023/10/25 03:02:59;;;;;;;0.00;0.00;;;24.90;48.60;;;;;;5083547;28;20599;-48
2023/10/25 03:05:30;;;;;;;0.00;0.00;;;24.90;48.70;;;;;;5080259;28;20198;-49
2023/10/25 03:08:00;;;;;;;0.00;0.00;;;25.00;48.70;;;;;;5080675;28;20206;-47
2023/10/25 03:10:31;;;;;;;0.00;0.00;;;25.00;48.60;;;;;;5081305;28;20199;-48
2023/10/25 03:13:03;;;;;;;0.00;0.00;;;25.10;48.70;;;;;;5081353;28;20190;-48
2023/10/25 03:15:33;;;;;;;0.00;0.00;;;25.10;48.70;;;;;;5081702;28;20678;-49
2023/10/25 03:18:05;;;;;;;0.00;0.00;;;25.10;48.70;;;;;;5080999;28;20198;-48
2023/10/25 03:20:36;;;;;;;0.00;0.00;;;25.20;48.70;;;;;;5080988;28;20206;-47
2023/10/25 03:23:07;;;;;;;0.00;0.00;;;25.20;48.70;;;;;;5080046;28;20238;-48
2023/10/25 03:25:40;;;;;;;0.00;0.00;;;25.30;48.70;;;;;;5080501;28;20205;-47
2023/10/25 03:28:10;;;;;;;0.00;0.00;;;25.30;48.70;;;;;;5083448;28;20224;-44
2023/10/25 03:30:41;;;;;;;0.00;0.00;;;25.30;48.60;;;;;;5071002;28;20202;-48
2023/10/25 03:33:12;;;;;;;0.00;0.00;;;25.40;48.60;;;;;;5076505;28;20203;-48
2023/10/25 03:35:42;;;;;;;0.00;0.00;;;25.40;48.40;;;;;;5078528;28;20201;-48
2023/10/25 03:38:13;;;;;;;0.00;0.00;;;25.50;48.40;;;;;;5081390;28;20351;-48
2023/10/25 03:40:46;;;;;;;0.00;0.00;;;25.50;48.20;;;;;;5084643;28;20489;-46
2023/10/25 03:43:17;;;;;;;0.00;0.00;;;25.50;48.20;;;;;;5078555;28;20258;-47
2023/10/25 03:45:47;;;;;;;0.00;0.00;;;25.50;48.10;;;;;;5082938;28;20199;-48
2023/10/25 03:48:18;;;;;;;0.00;0.00;;;25.60;48.20;;;;;;5076336;28;20214;-48
2023/10/25 03:50:49;;;;;;;0.05;0.05;;;25.60;48.20;;;;;;5074761;28;20186;-49
2023/10/25 03:53:20;;;;;;;0.00;0.00;;;25.60;48.20;;;;;;5079034;28;20194;-46
2023/10/25 03:55:58;;;;;;;0.10;0.10;;;25.70;48.20;;;;;;5079763;28;20728;-48
2023/10/25 03:58:29;;;;;;;0.00;0.00;;;25.70;48.20;;;;;;5080778;28;20221;-47
2023/10/25 04:01:03;;;;;;;0.00;0.00;;;25.70;48.30;;;;;;5076889;28;20199;-48
2023/10/25 04:03:34;;;;;;;0.00;0.00;;;25.70;48.30;;;;;;5078594;28;20222;-46
2023/10/25 04:06:06;;;;;;;0.00;0.00;;;25.70;48.30;;;;;;5083134;28;20195;-47
2023/10/25 04:08:37;;;;;;;0.00;0.00;;;25.70;48.30;;;;;;5081110;28;20237;-48
2023/10/25 04:11:10;;;;;;;0.00;0.00;;;25.70;48.30;;;;;;5081260;28;20198;-47
2023/10/25 04:13:40;;;;;;;0.00;0.00;;;25.70;48.10;;;;;;5080422;28;20204;-45
2023/10/25 04:16:12;;;;;;;0.00;0.00;;;25.70;48.10;;;;;;5079946;28;21277;-45
2023/10/25 04:18:43;;;;;;;0.00;0.00;;;25.70;48.10;;;;;;5077193;28;20246;-45
2023/10/25 04:21:15;;;;;;;0.00;0.00;;;25.70;48.00;;;;;;5078522;28;20210;-47
2023/10/25 04:23:46;;;;;;;0.00;0.00;;;25.70;47.80;;;;;;5079869;28;20715;-45
2023/10/25 04:26:18;;;;;;;0.00;0.00;;;25.70;47.80;;;;;;5076115;28;20203;-47
2023/10/25 04:28:49;;;;;;;0.00;0.00;;;25.70;47.80;;;;;;5078682;28;20584;-46
2023/10/25 04:31:20;;;;;;;0.00;0.00;;;25.80;47.80;;;;;;5078403;28;20577;-48
2023/10/25 04:33:51;;;;;;;0.00;0.00;;;25.80;47.80;;;;;;5077764;28;20198;-46
2023/10/25 04:36:22;;;;;;;0.00;0.00;;;25.80;47.80;;;;;;5080875;28;20202;-48
2023/10/25 04:38:52;;;;;;;0.00;0.00;;;25.80;47.80;;;;;;5077537;28;20218;-46
2023/10/25 04:41:25;;;;;;;0.00;0.00;;;25.80;47.80;;;;;;5079442;28;20702;-46
2023/10/25 04:43:55;;;;;;;0.00;0.00;;;25.80;47.80;;;;;;5080631;28;20229;-48
2023/10/25 04:46:26;;;;;;;0.00;0.00;;;25.80;47.70;;;;;;5078636;28;20202;-47
2023/10/25 04:48:57;;;;;;;0.00;0.00;;;25.80;47.70;;;;;;5084198;28;20225;-46
2023/10/25 04:51:27;;;;;;;0.00;0.00;;;25.80;47.60;;;;;;5080664;28;20202;-45
2023/10/25 04:53:58;;;;;;;0.00;0.00;;;25.80;47.60;;;;;;5077990;28;20198;-45
2023/10/25 04:56:30;;;;;;;0.00;0.00;;;25.80;47.60;;;;;;5082558;28;20224;-47
2023/10/25 04:59:01;;;;;;;0.00;0.00;;;25.70;47.60;;;;;;5078835;28;20678;-45
2023/10/25 05:01:32;;;;;;;0.00;0.00;;;25.70;47.70;;;;;;5079307;28;20194;-47
2023/10/25 05:04:02;;;;;;;0.00;0.00;;;25.70;47.80;;;;;;5082201;28;20226;-44
2023/10/25 05:06:33;;;;;;;0.00;0.00;;;25.70;47.70;;;;;;5079065;28;20198;-47
2023/10/25 05:09:05;;;;;;;0.00;0.00;;;25.70;47.70;;;;;;5079750;28;20214;-50
2023/10/25 05:11:40;;;;;;;0.00;0.00;;;25.70;47.60;;;;;;5078444;28;20190;-46
2023/10/25 05:14:11;;;;;;;0.00;0.00;;;25.70;47.60;;;;;;5078719;28;20254;-48
2023/10/25 05:16:42;;;;;;;0.00;0.00;;;25.70;47.60;;;;;;5081405;28;20650;-46
2023/10/25 05:19:13;;;;;;;0.00;0.00;;;25.70;47.60;;;;;;5078192;28;20241;-49
2023/10/25 05:21:47;;;;;;;0.00;0.00;;;25.70;47.60;;;;;;5079842;28;20194;-48
2023/10/25 05:24:18;;;;;;;0.00;0.00;;;25.70;47.50;;;;;;5078445;28;20263;-48
2023/10/25 05:26:52;;;;;;;0.00;0.00;;;25.70;47.30;;;;;;5077416;28;20641;-48
2023/10/25 05:29:21;;;;;;;0.00;0.00;;;25.70;47.20;;;;;;5077082;28;20218;-46
2023/10/25 05:31:53;;;;;;;0.00;0.00;;;25.60;47.00;;;;;;5079470;28;20273;-48
2023/10/25 05:34:24;;;;;;;0.00;0.00;;;25.60;46.90;;;;;;5084415;28;20204;-48
2023/10/25 05:36:55;;;;;;;0.03;0.03;;;25.60;46.90;;;;;;5081792;28;20206;-47
2023/10/25 05:39:26;;;;;;;0.00;0.00;;;25.60;46.80;;;;;;5085989;28;20548;-48
2023/10/25 05:41:59;;;;;;;0.00;0.00;;;25.60;46.70;;;;;;5082500;28;20190;-46
2023/10/25 05:44:30;;;;;;;0.00;0.00;;;25.60;46.40;;;;;;5083309;28;20237;-46
2023/10/25 05:47:01;;;;;;;0.00;0.00;;;25.60;46.60;;;;;;5083960;28;20222;-47
2023/10/25 05:49:32;;;;;;;0.00;0.00;;;25.50;46.60;;;;;;5081196;28;20221;-45
2023/10/25 05:52:03;;;;;;;0.00;0.00;;;25.50;46.80;;;;;;5081628;28;20194;-45
2023/10/25 05:54:34;;;;;;;0.00;0.00;;;25.50;46.90;;;;;;5079335;28;20190;-46
2023/10/25 05:57:07;;;;;;;0.00;0.00;;;25.50;46.90;;;;;;5083199;28;20669;-45
2023/10/25 05:59:38;;;;;;;0.00;0.00;;;25.50;46.90;;;;;;5082840;28;20213;-46
2023/10/25 06:02:14;;;;;;;0.00;0.00;;;25.50;46.90;;;;;;5081658;28;20194;-47
2023/10/25 06:04:45;;;;;;;0.00;0.00;;;25.50;46.90;;;;;;5080255;28;20682;-49
2023/10/25 06:07:16;;;;;;;0.00;0.00;;;25.50;46.80;;;;;;5082381;28;20194;-48
2023/10/25 06:09:47;;;;;;;0.00;0.00;;;25.50;46.80;;;;;;5084153;28;20233;-47
2023/10/25 06:12:21;;;;;;;0.00;0.00;;;25.50;47.30;;;;;;5082206;28;20210;-47
2023/10/25 06:14:52;;;;;;;0.00;0.00;;;25.40;46.60;;;;;;5083235;28;20197;-47
2023/10/25 06:17:22;;;;;;;0.00;0.00;;;25.50;46.50;;;;;;5082058;28;20210;-46
2023/10/25 06:19:53;;;;;;;0.00;0.00;;;25.40;46.30;;;;;;5084091;28;20222;-45
2023/10/25 06:22:28;;;;;;;0.00;0.00;;;25.40;46.30;;;;;;5080687;28;20198;-47
2023/10/25 06:24:59;;;;;;;0.00;0.00;;;25.40;46.20;;;;;;5077903;28;20255;-46
2023/10/25 06:27:31;;;;;;;0.00;0.00;;;25.40;46.10;;;;;;5083031;28;20216;-45
2023/10/25 06:30:02;;;;;;;0.00;0.00;;;25.30;46.00;;;;;;5082341;28;20222;-48
2023/10/25 06:32:33;;;;;;;0.00;0.00;;;25.30;46.00;;;;;;5081373;28;20198;-48
2023/10/25 06:35:04;;;;;;;0.00;0.00;;;25.30;46.10;;;;;;5080230;28;20285;-47
2023/10/25 06:37:35;;;;;;;0.00;0.00;;;25.30;46.10;;;;;;5081710;28;20202;-47
2023/10/25 06:40:06;;;;;;;0.00;0.00;;;25.30;46.20;;;;;;5081111;28;20349;-48
2023/10/25 06:42:39;;;;;;;0.00;0.00;;;25.30;46.30;;;;;;5079391;28;20194;-48
2023/10/25 06:45:14;;;;;;;0.00;0.00;;;25.30;46.30;;;;;;5079090;28;20214;-46
2023/10/25 06:47:46;;;;;;;0.00;0.00;;;25.30;46.30;;;;;;5082178;28;20199;-45
2023/10/25 06:50:17;;;;;;;0.00;0.00;;;25.30;46.30;;;;;;5084224;28;20218;-47
2023/10/25 06:52:48;;;;;;;0.00;0.00;;;25.20;46.20;;;;;;5081737;28;20288;-47
2023/10/25 06:55:20;;;;;;;0.00;0.00;;;25.20;46.20;;;;;;5081409;28;20226;-46
2023/10/25 06:57:53;;;;;;;0.00;0.00;;;25.20;46.10;;;;;;5083140;28;20198;-47
2023/10/25 07:00:24;;;;;;;0.00;0.00;;;25.20;46.00;;;;;;5078119;28;20202;-46
2023/10/25 07:02:59;;;;;;;0.00;0.00;;;25.20;45.90;;;;;;5084196;28;21070;-46
2023/10/25 07:05:30;;;;;;;0.00;0.00;;;25.10;45.80;;;;;;5081367;28;20295;-45
2023/10/25 07:08:01;;;;;;;0.00;0.00;;;25.10;45.70;;;;;;5082885;28;20221;-48
2023/10/25 07:10:33;;;;;;;0.00;0.00;;;25.10;45.70;;;;;;5080488;28;20202;-47
2023/10/25 07:13:05;;;;;;;0.00;0.00;;;25.10;45.60;;;;;;5083363;28;20540;-47
2023/10/25 07:15:36;;;;;;;0.00;0.00;;;25.00;45.60;;;;;;5079509;28;20203;-43
2023/10/25 07:18:07;;;;;;;0.00;0.00;;;25.00;45.50;;;;;;5081638;28;20205;-47
2023/10/25 07:20:38;;;;;;;0.00;0.00;;;25.00;45.50;;;;;;5073438;28;20199;-47
2023/10/25 07:23:08;;;;;;;0.00;0.00;;;25.00;45.50;;;;;;5073092;28;20198;-47
2023/10/25 07:25:39;;;;;;;0.00;0.00;;;24.90;45.50;;;;;;5071623;28;20237;-43
2023/10/25 07:28:12;;;;;;;0.00;0.00;;;24.90;45.50;;;;;;5071324;28;20199;-46
2023/10/25 07:30:42;;;;;;;0.08;0.08;;;24.90;45.50;;;;;;5071682;28;20195;-46
2023/10/25 07:33:13;;;;;;;0.00;0.00;;;24.90;45.60;;;;;;5080252;28;20190;-47
2023/10/25 07:35:44;;;;;;;0.00;0.00;;;24.90;45.60;;;;;;5079906;28;20193;-45
2023/10/25 07:38:14;;;;;;;0.00;0.00;;;24.90;45.60;;;;;;5091252;28;20202;-46
2023/10/25 07:40:45;;;;;;;0.00;0.00;;;24.90;45.50;;;;;;5091905;28;20206;-45
2023/10/25 07:43:17;;;;;;;0.10;0.10;;;24.80;45.40;;;;;;5090123;28;20190;-47
2023/10/25 07:45:48;;;;;;;0.10;0.10;;;24.80;45.40;;;;;;5084661;28;20218;-45
2023/10/25 07:48:20;;;;;;;0.00;0.00;;;24.80;45.40;;;;;;5091480;28;20222;-47
2023/10/25 07:50:51;;;;;;;0.00;0.00;;;24.70;45.30;;;;;;5085971;28;20240;-45
2023/10/25 07:53:22;;;;;;;0.00;0.00;;;24.70;45.30;;;;;;5072163;28;20195;-47
2023/10/25 07:55:52;;;;;;;0.00;0.00;;;24.70;45.30;;;;;;5070822;28;20199;-46
2023/10/25 07:58:25;;;;;;;0.00;0.00;;;24.70;45.30;;;;;;5087574;28;20280;-47
2023/10/25 08:00:55;;;;;;;0.00;0.00;;;24.70;45.30;;;;;;5090499;28;20205;-45
2023/10/25 08:03:28;;;;;;;0.00;0.00;;;24.70;45.20;;;;;;5084853;28;20205;-47
2023/10/25 08:05:59;;;;;;;0.00;0.00;;;24.60;45.20;;;;;;5091920;28;20705;-47
2023/10/25 08:08:30;;;;;;;0.00;0.00;;;24.60;45.20;;;;;;5091648;28;20221;-47
2023/10/25 08:11:04;;;;;;;0.00;0.00;;;24.60;45.20;;;;;;5091174;28;20654;-47
2023/10/25 08:13:40;;;;;;;0.00;0.00;;;24.60;45.20;;;;;;5074478;28;20221;-45
2023/10/25 08:16:10;;;;;;;0.10;0.10;;;24.50;45.20;;;;;;5071148;28;20299;-45
2023/10/25 08:18:41;;;;;;;0.08;0.08;;;24.50;45.30;;;;;;5070850;28;20223;-45
2023/10/25 08:21:16;;;;;;;0.00;0.00;;;24.50;45.30;;;;;;5069994;28;20228;-45
2023/10/25 08:23:51;;;;;;;0.10;0.10;;;24.50;45.30;;;;;;5073254;28;20646;-47
2023/10/25 08:26:25;;;;;;;0.00;0.00;;;24.50;45.30;;;;;;5070389;28;20228;-45
2023/10/25 08:28:57;;;;;;;0.00;0.00;;;24.50;45.30;;;;;;5070578;28;20222;-46
2023/10/25 08:31:28;;;;;;;0.00;0.00;;;24.40;45.30;;;;;;5071124;28;20199;-46
2023/10/25 08:33:59;;;;;;;0.00;0.00;;;24.40;45.30;;;;;;5079705;28;20194;-45
2023/10/25 08:36:30;;;;;;;0.00;0.00;;;24.40;45.30;;;;;;5091743;28;20213;-47
2023/10/25 08:39:01;;;;;;;0.00;0.00;;;24.40;45.30;;;;;;5087521;28;20258;-45
2023/10/25 08:41:33;;;;;;;0.00;0.00;;;24.30;45.20;;;;;;5071379;28;20567;-47
2023/10/25 08:44:08;;;;;;;0.10;0.10;;;24.30;45.20;;;;;;5074238;28;20192;-44
2023/10/25 08:46:39;;;;;;;0.00;0.00;;;24.30;45.30;;;;;;5091282;28;20197;-48
2023/10/25 08:49:09;;;;;;;0.00;0.00;;;24.30;45.30;;;;;;5090940;28;20233;-47
2023/10/25 08:51:44;;;;;;;0.00;0.00;;;24.30;45.30;;;;;;5082928;28;20195;-45
2023/10/25 08:54:17;;;;;;;0.00;0.00;;;24.20;45.30;;;;;;5070524;28;20194;-46
2023/10/25 08:56:48;;;;;;;0.00;0.00;;;24.20;45.30;;;;;;5066969;28;20186;-45
2023/10/25 08:59:21;;;;;;;0.00;0.00;;;24.20;45.40;;;;;;5074661;28;20214;-45
2023/10/25 09:01:52;;;;;;;0.10;0.10;;;24.20;45.40;;;;;;5078696;28;20190;-46
2023/10/25 09:04:22;;;;;;;0.00;0.00;;;24.20;45.50;;;;;;5082715;28;20661;-47
2023/10/25 09:06:53;;;;;;;0.00;0.00;;;24.20;45.50;;;;;;5093807;28;20190;-47
2023/10/25 09:09:24;;;;;;;0.00;0.00;;;24.10;45.40;;;;;;5094967;28;20218;-47
2023/10/25 09:11:54;;;;;;;0.05;0.05;;;24.10;45.50;;;;;;5083601;28;20197;-47
2023/10/25 09:14:27;;;;;;;0.00;0.00;;;24.10;45.40;;;;;;5094614;28;20276;-47
2023/10/25 09:16:58;;;;;;;0.00;0.00;;;24.10;45.40;;;;;;5095021;28;20660;-46
2023/10/25 09:19:29;;;;;;;0.00;0.00;;;24.10;45.40;;;;;;5095491;28;20218;-46
2023/10/25 09:21:59;;;;;;;0.00;0.00;;;24.00;45.40;;;;;;5095747;28;20382;-45
2023/10/25 09:24:30;;;;;;;0.10;0.10;;;24.00;45.40;;;;;;5094813;28;20190;-47
2023/10/25 09:27:08;;;;;;;0.10;0.10;;;24.00;45.40;;;;;;5095048;28;20186;-46
2023/10/25 09:29:41;;;;;;;0.00;0.00;;;24.00;45.40;;;;;;5094053;28;20222;-47
2023/10/25 09:32:12;;;;;;;0.00;0.00;;;24.00;45.40;;;;;;5094929;28;20201;-45
2023/10/25 09:34:43;;;;;;;0.10;0.10;;;24.00;45.40;;;;;;5094641;28;20205;-47
2023/10/25 09:37:15;;;;;;;0.00;0.00;;;23.90;45.40;;;;;;5095131;28;20193;-47
2023/10/25 09:39:45;;;;;;;0.10;0.10;;;23.90;45.40;;;;;;5094125;28;20221;-45
2023/10/25 09:42:18;;;;;;;0.00;0.00;;;23.90;45.40;;;;;;5104239;28;20218;-47
2023/10/25 09:44:50;;;;;;;0.10;0.10;;;23.90;45.50;;;;;;5115091;27;20218;-47
2023/10/25 09:47:27;;;;;;;0.00;0.00;;;23.80;45.40;;;;;;5113969;28;20279;-47
2023/10/25 09:50:04;;;;;;;0.00;0.00;;;23.80;45.50;;;;;;5114918;28;20217;-47
2023/10/25 09:52:41;;;;;;;0.00;0.00;;;23.80;45.50;;;;;;5089195;28;20683;-45
2023/10/25 09:55:24;;;;;;;0.00;0.00;;;23.80;45.50;;;;;;5094755;28;20459;-48
2023/10/25 09:57:56;;;;;;;0.00;0.00;;;23.80;45.60;;;;;;5094303;28;20662;-47
2023/10/25 10:00:30;;;;;;;0.00;0.00;;;23.80;45.60;;;;;;5090662;28;20186;-47
2023/10/25 10:03:08;;;;;;;0.00;0.00;;;23.70;45.50;;;;;;5093807;28;20233;-45
2023/10/25 10:05:51;;;;;;;0.00;0.00;;;23.70;45.50;;;;;;5084661;28;20218;-45
2023/10/25 10:08:25;;;;;;;0.00;0.00;;;23.70;45.50;;;;;;5094004;28;20213;-44
2023/10/25 10:11:02;;;;;;;0.00;0.00;;;23.70;45.50;;;;;;5093420;28;20776;-45
2023/10/25 10:13:33;;;;;;;0.10;0.10;;;23.70;45.50;;;;;;5094043;28;20587;-47
2023/10/25 10:16:09;;;;;;;0.05;0.05;;;23.70;45.50;;;;;;5094055;28;20197;-47
2023/10/25 10:18:47;;;;;;;0.10;0.10;;;23.70;45.60;;;;;;5092441;28;20255;-46
2023/10/25 10:21:18;;;;;;;0.00;0.00;;;23.60;45.50;;;;;;5093714;28;20237;-46
2023/10/25 10:23:51;;;;;;;0.00;0.00;;;23.60;45.50;;;;;;5094440;28;20197;-45
2023/10/25 10:26:51;;;;;;;0.10;0.10;;;23.60;45.50;;;;;;5093911;28;20620;-46
2023/10/25 10:29:40;;;;;;;0.00;0.00;;;23.50;45.50;;;;;;5082730;28;20219;-46
2023/10/25 10:32:13;;;;;;;0.10;0.10;;;23.50;45.50;;;;;;5078922;28;20287;-47
2023/10/25 10:34:48;;;;;;;0.10;0.10;;;23.50;45.50;;;;;;5079357;28;20203;-47
2023/10/25 10:37:20;;;;;;;0.00;0.00;;;23.50;45.60;;;;;;5080035;28;20185;-46
2023/10/25 10:40:17;;;;;;;0.00;0.00;;;23.50;45.60;;;;;;5093117;28;20275;-47
2023/10/25 10:42:48;;;;;;;0.08;0.08;;;23.50;45.60;;;;;;5092857;28;20661;-48
2023/10/25 10:45:20;;;;;;;0.00;0.00;;;23.40;45.60;;;;;;5093353;28;20636;-45
2023/10/25 10:47:58;;;;;;;0.00;0.00;;;23.40;45.60;;;;;;5093251;28;20194;-46
2023/10/25 10:50:29;;;;;;;0.00;0.00;;;23.40;45.60;;;;;;5093604;28;20194;-48
2023/10/25 10:53:00;;;;;;;0.00;0.00;;;23.40;45.60;;;;;;5097490;28;20585;-48
2023/10/25 10:55:31;;;;;;;0.00;0.00;;;23.40;45.60;;;;;;5108033;28;20193;-47
2023/10/25 10:58:02;;;;;;;0.00;0.00;;;23.40;45.60;;;;;;5075373;28;20201;-45
2023/10/25 11:00:33;;;;;;;0.00;0.00;;;23.40;45.60;;;;;;5080069;28;20283;-47
2023/10/25 11:03:06;;;;;;;0.00;0.00;;;23.40;45.60;;;;;;5093397;28;20206;-49
2023/10/25 11:05:39;;;;;;;0.00;0.00;;;23.40;45.60;;;;;;5092651;28;20233;-46
2023/10/25 11:08:13;;;;;;;0.00;0.00;;;23.30;45.60;;;;;;5093214;28;20198;-46
2023/10/25 11:10:44;;;;;;;0.00;0.00;;;23.30;45.60;;;;;;5092541;28;20201;-46
2023/10/25 11:13:16;;;;;;;0.00;0.00;;;23.30;45.60;;;;;;5093091;28;20568;-46
2023/10/25 11:15:46;;;;;;;0.00;0.00;;;23.30;45.70;;;;;;5092152;28;20281;-48
2023/10/25 11:18:19;;;;;;;0.10;0.10;;;23.30;45.70;;;;;;5093005;28;20198;-47
2023/10/25 11:20:50;;;;;;;0.00;0.00;;;23.30;45.70;;;;;;5093526;28;20198;-47
2023/10/25 11:23:21;;;;;;;0.00;0.00;;;23.30;45.70;;;;;;5078479;28;20198;-43
2023/10/25 11:25:51;;;;;;;0.00;0.00;;;23.20;45.60;;;;;;5091446;28;20618;-46
2023/10/25 11:28:22;;;;;;;0.10;0.10;;;23.20;45.70;;;;;;5092820;28;20591;-46
2023/10/25 11:30:53;;;;;;;0.00;0.00;;;23.20;45.70;;;;;;5092812;28;20198;-47
2023/10/25 11:33:26;;;;;;;0.03;0.03;;;23.20;45.70;;;;;;5090122;28;20198;-47
2023/10/25 11:35:59;;;;;;;0.10;0.10;;;23.20;45.70;;;;;;5092929;28;20198;-46
2023/10/25 11:38:30;;;;;;;0.00;0.00;;;23.20;45.70;;;;;;5093174;28;20221;-48
2023/10/25 11:41:01;;;;;;;0.00;0.00;;;23.20;45.70;;;;;;5093222;28;20222;-46
2023/10/25 11:43:32;;;;;;;0.00;0.00;;;23.20;45.70;;;;;;5093218;28;20194;-45
2023/10/25 11:46:05;;;;;;;0.00;0.00;;;23.20;45.60;;;;;;5092571;28;20222;-45
2023/10/25 11:48:39;;;;;;;0.00;0.00;;;23.10;45.60;;;;;;5092699;28;20210;-47
2023/10/25 11:51:10;;;;;;;0.00;0.00;;;23.10;45.60;;;;;;5087719;28;20186;-45
2023/10/25 11:53:41;;;;;;;0.10;0.10;;;23.10;45.60;;;;;;5072501;28;20195;-46
2023/10/25 11:56:12;;;;;;;0.00;0.00;;;23.10;45.60;;;;;;5072557;28;20199;-45
2023/10/25 11:58:43;;;;;;;0.00;0.00;;;23.10;45.60;;;;;;5072672;28;20230;-46
2023/10/25 12:01:13;;;;;;;0.00;0.00;;;23.10;45.70;;;;;;5072570;28;20198;-45
2023/10/25 12:03:46;;;;;;;0.00;0.00;;;23.10;45.70;;;;;;5078434;28;20229;-47
2023/10/25 12:06:16;;;;;;;0.10;0.10;;;23.00;45.60;;;;;;5092692;28;20240;-47
2023/10/25 12:08:47;;;;;;;0.00;0.00;;;23.00;45.60;;;;;;5092778;28;20221;-47
2023/10/25 12:11:18;;;;;;;0.00;0.00;;;23.00;45.60;;;;;;5092261;28;20214;-44
2023/10/25 12:13:48;;;;;;;0.10;0.10;;;23.00;45.70;;;;;;5091952;28;20190;-46
2023/10/25 12:16:19;;;;;;;0.05;0.05;;;23.00;45.70;;;;;;5092528;28;20217;-46
2023/10/25 12:18:52;;;;;;;0.10;0.10;;;23.00;45.70;;;;;;5091971;28;20225;-47
2023/10/25 12:21:23;;;;;;;0.10;0.10;;;23.00;45.70;;;;;;5092208;28;20240;-45
2023/10/25 12:23:53;;;;;;;0.00;0.00;;;23.00;45.70;;;;;;5092588;28;20193;-46
2023/10/25 12:26:24;;;;;;;0.00;0.00;;;23.00;45.70;;;;;;5092433;28;20237;-47
2023/10/25 12:28:55;;;;;;;0.10;0.10;;;23.00;45.70;;;;;;5092131;28;20218;-46
2023/10/25 12:31:25;;;;;;;0.00;0.00;;;22.90;45.60;;;;;;5088608;28;20205;-45
2023/10/25 12:33:58;;;;;;;0.00;0.00;;;23.00;45.60;;;;;;5092293;28;20198;-47
2023/10/25 12:36:28;;;;;;;0.10;0.10;;;22.90;45.60;;;;;;5092142;28;20665;-46
2023/10/25 12:38:59;;;;;;;0.10;0.10;;;22.90;45.50;;;;;;5091728;28;20685;-46
2023/10/25 12:41:30;;;;;;;0.00;0.00;;;22.90;45.50;;;;;;5091756;28;20673;-47
2023/10/25 12:44:02;;;;;;;0.00;0.00;;;22.90;45.50;;;;;;5092085;28;20201;-45
2023/10/25 12:46:32;;;;;;;0.08;0.08;;;22.90;45.50;;;;;;5091831;28;20229;-47
2023/10/25 12:49:05;;;;;;;0.10;0.10;;;22.90;45.50;;;;;;5091414;28;20210;-44
2023/10/25 12:51:36;;;;;;;0.00;0.00;;;22.90;45.50;;;;;;5091417;28;20677;-45
2023/10/25 12:54:07;;;;;;;0.00;0.00;;;22.90;45.50;;;;;;5091499;28;20198;-46
2023/10/25 12:56:37;;;;;;;0.10;0.10;;;22.90;45.50;;;;;;5091586;28;20220;-46
2023/10/25 12:59:08;;;;;;;0.03;0.03;;;22.90;45.50;;;;;;5091498;28;20224;-44
2023/10/25 13:01:39;;;;;;;0.10;0.10;;;22.80;45.60;;;;;;5091779;28;20190;-44
2023/10/25 13:04:12;;;;;;;0.03;0.03;;;22.80;45.60;;;;;;5082119;28;20210;-46
2023/10/25 13:06:42;;;;;;;0.00;0.00;;;22.80;45.60;;;;;;5071669;28;20227;-47
2023/10/25 13:09:14;;;;;;;0.10;0.10;;;22.80;45.60;;;;;;5071649;28;20222;-46
2023/10/25 13:11:44;;;;;;;0.05;0.05;;;22.80;45.60;;;;;;5071337;28;20234;-47